PWSweather.com
Personal Weather Stations
Station Observations
KAZTUCSO57
Countryside Manor, Tucson, AZ 85742

Countryside ManorTucson, AZ 85742

Lat: 32.3692, Lon: -111.066

Elevation: 2307

Station Type: Davis VP Pro+ 6163

http://frogville.us

Latest ConditionsUpdated 6:10:00 PM MST Thursday, Feb 11, 2016
Currently Today's Max Today's Min Today's Average
Temperature 78.0°F25.6°C 89.4°F31.9°C 45.9°F7.7°C 64.8°F18.2°C
Dew Point 31.1°F-0.5°C 31.1°F-0.5°C 24.2°F-4.3°C 26.6°F-3.0°C
Winds 2.3 mph WSW3.7 kmh WSW 3.5 mph W5.6 kmh W - 1.0 mph 1.6 kmh
Wind Gusts 3.5 mph5.6 kmh 6.9 mph11.1 kmh - -
Humidity 18% 47% 10% 28%
Pressure 30.05 in1017.6 mb 30.14 in1020.7 mb 30.03 in1016.9 mb -
Hour Temp Dew Point Humidity Winds Wind Gusts Pressure Precip Precip Rate Daily Precip Total
06:10 PM 78.0°F25.6°C 31.1°F-0.5°C 18% 2.3 mph WSW3.7 kmh WSW 3.5 mph5.6 kmh 30.05 in1017.6 mb - 0.00 in0.0 mm 0.00 in0.0 mm
06:00 PM 78.9°F26.1°C 30.4°F-0.9°C 17% 2.3 mph WSW3.7 kmh WSW 3.5 mph5.6 kmh 30.05 in1017.6 mb - 0.00 in0.0 mm 0.00 in0.0 mm
05:50 PM 80.0°F26.7°C 29.8°F-1.2°C 16% 3.5 mph WSW5.6 kmh WSW 4.6 mph7.4 kmh 30.05 in1017.6 mb - 0.00 in0.0 mm 0.00 in0.0 mm
05:40 PM 81.1°F27.3°C 30.7°F-0.7°C 16% 2.3 mph WSW3.7 kmh WSW 3.5 mph5.6 kmh 30.05 in1017.6 mb - 0.00 in0.0 mm 0.00 in0.0 mm
05:30 PM 82.1°F27.8°C 29.9°F-1.2°C 15% 2.3 mph WSW3.7 kmh WSW 3.5 mph5.6 kmh 30.04 in1017.3 mb - 0.00 in0.0 mm 0.00 in0.0 mm
05:20 PM 83.2°F28.4°C 29.0°F-1.7°C 14% 2.3 mph WSW3.7 kmh WSW 3.5 mph5.6 kmh 30.04 in1017.3 mb - 0.00 in0.0 mm 0.00 in0.0 mm
05:10 PM 84.1°F28.9°C 29.7°F-1.3°C 14% 3.5 mph W5.6 kmh W 4.6 mph7.4 kmh 30.04 in1017.3 mb - 0.00 in0.0 mm 0.00 in0.0 mm
05:00 PM 84.9°F29.4°C 26.6°F-3.0°C 12% 3.5 mph W5.6 kmh W 6.9 mph11.1 kmh 30.04 in1017.3 mb - 0.00 in0.0 mm 0.00 in0.0 mm
04:50 PM 85.8°F29.9°C 27.3°F-2.6°C 12% 2.3 mph SW3.7 kmh SW 3.5 mph5.6 kmh 30.03 in1016.9 mb - 0.00 in0.0 mm 0.00 in0.0 mm
04:40 PM 86.3°F30.2°C 25.6°F-3.6°C 11% 2.3 mph SW3.7 kmh SW 4.6 mph7.4 kmh 30.03 in1016.9 mb - 0.00 in0.0 mm 0.00 in0.0 mm
04:30 PM 86.6°F30.3°C 25.8°F-3.4°C 11% 2.3 mph WSW3.7 kmh WSW 4.6 mph7.4 kmh 30.03 in1016.9 mb - 0.00 in0.0 mm 0.00 in0.0 mm
04:20 PM 87.4°F30.8°C 26.4°F-3.1°C 11% 3.5 mph WSW5.6 kmh WSW 5.8 mph9.3 kmh 30.03 in1016.9 mb - 0.00 in0.0 mm 0.00 in0.0 mm
04:10 PM 87.9°F31.1°C 26.8°F-2.9°C 11% 1.2 mph W1.9 kmh W 3.5 mph5.6 kmh 30.03 in1016.9 mb - 0.00 in0.0 mm 0.00 in0.0 mm
04:00 PM 88.1°F31.2°C 27.0°F-2.8°C 11% 1.2 mph W1.9 kmh W 3.5 mph5.6 kmh 30.03 in1016.9 mb - 0.00 in0.0 mm 0.00 in0.0 mm
03:50 PM 88.5°F31.4°C 27.3°F-2.6°C 11% 2.3 mph WNW3.7 kmh WNW 3.5 mph5.6 kmh 30.03 in1016.9 mb - 0.00 in0.0 mm 0.00 in0.0 mm
03:40 PM 89.1°F31.7°C 25.4°F-3.7°C 10% 2.3 mph WSW3.7 kmh WSW 4.6 mph7.4 kmh 30.03 in1016.9 mb - 0.00 in0.0 mm 0.00 in0.0 mm
03:30 PM 89.4°F31.9°C 25.7°F-3.5°C 10% 2.3 mph WNW3.7 kmh WNW 4.6 mph7.4 kmh 30.03 in1016.9 mb - 0.00 in0.0 mm 0.00 in0.0 mm
03:20 PM 89.2°F31.8°C 25.5°F-3.6°C 10% 1.2 mph WNW1.9 kmh WNW 3.5 mph5.6 kmh 30.03 in1016.9 mb - 0.00 in0.0 mm 0.00 in0.0 mm
03:10 PM 89.1°F31.7°C 25.4°F-3.7°C 10% 2.3 mph NW3.7 kmh NW 3.5 mph5.6 kmh 30.03 in1016.9 mb - 0.00 in0.0 mm 0.00 in0.0 mm
03:00 PM 88.9°F31.6°C 25.3°F-3.7°C 10% 1.2 mph WNW1.9 kmh WNW 3.5 mph5.6 kmh 30.03 in1016.9 mb - 0.00 in0.0 mm 0.00 in0.0 mm
02:50 PM 88.9°F31.6°C 25.3°F-3.7°C 10% 1.2 mph W1.9 kmh W 3.5 mph5.6 kmh 30.03 in1016.9 mb - 0.00 in0.0 mm 0.00 in0.0 mm
02:40 PM 89.4°F31.9°C 25.6°F-3.6°C 10% 2.3 mph WSW3.7 kmh WSW 3.5 mph5.6 kmh 30.03 in1016.9 mb - 0.00 in0.0 mm 0.00 in0.0 mm
02:30 PM 89.1°F31.7°C 25.4°F-3.7°C 10% 2.3 mph W3.7 kmh W 3.5 mph5.6 kmh 30.04 in1017.3 mb - 0.00 in0.0 mm 0.00 in0.0 mm
02:20 PM 88.7°F31.5°C 25.1°F-3.8°C 10% 2.3 mph WNW3.7 kmh WNW 5.8 mph9.3 kmh 30.04 in1017.3 mb - 0.00 in0.0 mm 0.00 in0.0 mm
02:10 PM 88.3°F31.3°C 24.8°F-4.0°C 10% Calm Calm 1.2 mph1.9 kmh 30.04 in1017.3 mb - 0.00 in0.0 mm 0.00 in0.0 mm
02:00 PM 87.5°F30.8°C 24.2°F-4.3°C 10% 1.2 mph WNW1.9 kmh WNW 3.5 mph5.6 kmh 30.05 in1017.6 mb - 0.00 in0.0 mm 0.00 in0.0 mm
01:50 PM 87.0°F30.6°C 26.1°F-3.3°C 11% 1.2 mph N1.9 kmh N 2.3 mph3.7 kmh 30.05 in1017.6 mb - 0.00 in0.0 mm 0.00 in0.0 mm
01:40 PM 86.5°F30.3°C 25.7°F-3.5°C 11% 1.2 mph SW1.9 kmh SW 3.5 mph5.6 kmh 30.05 in1017.6 mb - 0.00 in0.0 mm 0.00 in0.0 mm
01:30 PM 85.5°F29.7°C 25.0°F-3.9°C 11% Calm Calm 2.3 mph3.7 kmh 30.06 in1017.9 mb - 0.00 in0.0 mm 0.00 in0.0 mm
01:20 PM 84.9°F29.4°C 24.5°F-4.2°C 11% 1.2 mph W1.9 kmh W 1.2 mph1.9 kmh 30.07 in1018.3 mb - 0.00 in0.0 mm 0.00 in0.0 mm
01:10 PM 83.9°F28.8°C 25.8°F-3.4°C 12% 1.2 mph SSW1.9 kmh SSW 1.2 mph1.9 kmh 30.07 in1018.3 mb - 0.00 in0.0 mm 0.00 in0.0 mm
01:00 PM 82.5°F28.1°C 24.7°F-4.1°C 12% Calm Calm -- 30.08 in1018.6 mb - 0.00 in0.0 mm 0.00 in0.0 mm
12:50 PM 80.7°F27.1°C 25.3°F-3.7°C 13% Calm Calm 1.2 mph1.9 kmh 30.08 in1018.6 mb - 0.00 in0.0 mm 0.00 in0.0 mm
12:40 PM 79.4°F26.3°C 26.0°F-3.3°C 14% 1.2 mph SSW1.9 kmh SSW 1.2 mph1.9 kmh 30.09 in1019.0 mb - 0.00 in0.0 mm 0.00 in0.0 mm
12:30 PM 78.4°F25.8°C 25.2°F-3.8°C 14% Calm Calm 1.2 mph1.9 kmh 30.09 in1019.0 mb - 0.00 in0.0 mm 0.00 in0.0 mm
12:20 PM 77.1°F25.1°C 24.2°F-4.3°C 14% Calm Calm 2.3 mph3.7 kmh 30.10 in1019.3 mb - 0.00 in0.0 mm 0.00 in0.0 mm
12:10 PM 75.9°F24.4°C 24.9°F-3.9°C 15% 1.2 mph SW1.9 kmh SW 1.2 mph1.9 kmh 30.11 in1019.6 mb - 0.00 in0.0 mm 0.00 in0.0 mm
12:00 PM 75.2°F24.0°C 24.3°F-4.3°C 15% 1.2 mph SW1.9 kmh SW 2.3 mph3.7 kmh 30.11 in1019.6 mb - 0.00 in0.0 mm 0.00 in0.0 mm
11:50 AM 74.6°F23.7°C 26.8°F-2.9°C 17% 1.2 mph SSE1.9 kmh SSE 3.5 mph5.6 kmh 30.11 in1019.6 mb - 0.00 in0.0 mm 0.00 in0.0 mm
11:40 AM 73.6°F23.1°C 27.5°F-2.5°C 18% Calm Calm 1.2 mph1.9 kmh 30.12 in1020.0 mb - 0.00 in0.0 mm 0.00 in0.0 mm
11:30 AM 73.1°F22.8°C 27.0°F-2.8°C 18% 1.2 mph S1.9 kmh S 2.3 mph3.7 kmh 30.12 in1020.0 mb - 0.00 in0.0 mm 0.00 in0.0 mm
11:20 AM 72.4°F22.4°C 27.8°F-2.3°C 19% 1.2 mph E1.9 kmh E 3.5 mph5.6 kmh 30.13 in1020.3 mb - 0.00 in0.0 mm 0.00 in0.0 mm
11:10 AM 70.9°F21.6°C 27.8°F-2.3°C 20% 1.2 mph SE1.9 kmh SE 3.5 mph5.6 kmh 30.13 in1020.3 mb - 0.00 in0.0 mm 0.00 in0.0 mm
11:00 AM 69.7°F20.9°C 26.8°F-2.9°C 20% 1.2 mph SSE1.9 kmh SSE 2.3 mph3.7 kmh 30.13 in1020.3 mb - 0.00 in0.0 mm 0.00 in0.0 mm
10:50 AM 68.8°F20.4°C 27.2°F-2.7°C 21% Calm Calm 3.5 mph5.6 kmh 30.13 in1020.3 mb - 0.00 in0.0 mm 0.00 in0.0 mm
10:40 AM 68.0°F20.0°C 27.7°F-2.4°C 22% 1.2 mph E1.9 kmh E 3.5 mph5.6 kmh 30.14 in1020.7 mb - 0.00 in0.0 mm 0.00 in0.0 mm
10:30 AM 67.6°F19.8°C 27.4°F-2.6°C 22% 1.2 mph SE1.9 kmh SE 1.2 mph1.9 kmh 30.14 in1020.7 mb - 0.00 in0.0 mm 0.00 in0.0 mm
10:20 AM 66.8°F19.3°C 27.8°F-2.3°C 23% 2.3 mph SSE3.7 kmh SSE 3.5 mph5.6 kmh 30.14 in1020.7 mb - 0.00 in0.0 mm 0.00 in0.0 mm
10:10 AM 65.6°F18.7°C 26.8°F-2.9°C 23% 1.2 mph ENE1.9 kmh ENE 1.2 mph1.9 kmh 30.14 in1020.7 mb - 0.00 in0.0 mm 0.00 in0.0 mm
10:00 AM 64.5°F18.1°C 26.9°F-2.8°C 24% 1.2 mph ENE1.9 kmh ENE 3.5 mph5.6 kmh 30.14 in1020.7 mb - 0.00 in0.0 mm 0.00 in0.0 mm
09:50 AM 63.5°F17.5°C 27.0°F-2.8°C 25% 2.3 mph E3.7 kmh E 4.6 mph7.4 kmh 30.14 in1020.7 mb - 0.00 in0.0 mm 0.00 in0.0 mm
09:40 AM 62.6°F17.0°C 27.2°F-2.7°C 26% 2.3 mph E3.7 kmh E 3.5 mph5.6 kmh 30.14 in1020.7 mb - 0.00 in0.0 mm 0.00 in0.0 mm
09:30 AM 61.7°F16.5°C 27.3°F-2.6°C 27% 1.2 mph SE1.9 kmh SE 3.5 mph5.6 kmh 30.14 in1020.7 mb - 0.00 in0.0 mm 0.00 in0.0 mm
09:20 AM 60.9°F16.1°C 26.6°F-3.0°C 27% Calm Calm 2.3 mph3.7 kmh 30.14 in1020.7 mb - 0.00 in0.0 mm 0.00 in0.0 mm
09:10 AM 59.6°F15.3°C 26.4°F-3.1°C 28% Calm Calm 2.3 mph3.7 kmh 30.14 in1020.7 mb - 0.00 in0.0 mm 0.00 in0.0 mm
09:00 AM 58.5°F14.7°C 25.5°F-3.6°C 28% 1.2 mph E1.9 kmh E 2.3 mph3.7 kmh 30.14 in1020.7 mb - 0.00 in0.0 mm 0.00 in0.0 mm
08:50 AM 57.4°F14.1°C 26.2°F-3.2°C 30% 1.2 mph E1.9 kmh E 3.5 mph5.6 kmh 30.14 in1020.7 mb - 0.00 in0.0 mm 0.00 in0.0 mm
08:40 AM 56.0°F13.3°C 25.8°F-3.4°C 31% 2.3 mph E3.7 kmh E 2.3 mph3.7 kmh 30.14 in1020.7 mb - 0.00 in0.0 mm 0.00 in0.0 mm
08:30 AM 54.1°F12.3°C 25.6°F-3.6°C 33% 1.2 mph ESE1.9 kmh ESE 2.3 mph3.7 kmh 30.14 in1020.7 mb - 0.00 in0.0 mm 0.00 in0.0 mm
08:20 AM 51.6°F10.9°C 26.1°F-3.3°C 37% 1.2 mph E1.9 kmh E 2.3 mph3.7 kmh 30.14 in1020.7 mb - 0.00 in0.0 mm 0.00 in0.0 mm
08:10 AM 49.6°F9.8°C 26.8°F-2.9°C 41% Calm Calm 2.3 mph3.7 kmh 30.14 in1020.7 mb - 0.00 in0.0 mm 0.00 in0.0 mm
08:00 AM 47.4°F8.6°C 27.1°F-2.7°C 45% Calm Calm 1.2 mph1.9 kmh 30.13 in1020.3 mb - 0.00 in0.0 mm 0.00 in0.0 mm
07:50 AM 46.6°F8.1°C 26.9°F-2.8°C 46% 1.2 mph ENE1.9 kmh ENE 1.2 mph1.9 kmh 30.13 in1020.3 mb - 0.00 in0.0 mm 0.00 in0.0 mm
07:40 AM 45.9°F7.7°C 26.3°F-3.2°C 46% 1.2 mph ENE1.9 kmh ENE 2.3 mph3.7 kmh 30.13 in1020.3 mb - 0.00 in0.0 mm 0.00 in0.0 mm
07:30 AM 46.0°F7.8°C 26.9°F-2.8°C 47% Calm Calm -- 30.12 in1020.0 mb - 0.00 in0.0 mm 0.00 in0.0 mm
07:20 AM 46.3°F7.9°C 26.6°F-3.0°C 46% Calm Calm 1.2 mph1.9 kmh 30.12 in1020.0 mb - 0.00 in0.0 mm 0.00 in0.0 mm
07:10 AM 46.5°F8.1°C 26.8°F-2.9°C 46% Calm Calm 2.3 mph3.7 kmh 30.12 in1020.0 mb - 0.00 in0.0 mm 0.00 in0.0 mm
07:00 AM 46.8°F8.2°C 27.1°F-2.7°C 46% Calm Calm 2.3 mph3.7 kmh 30.12 in1020.0 mb - 0.00 in0.0 mm 0.00 in0.0 mm
06:50 AM 47.2°F8.4°C 26.9°F-2.8°C 45% 1.2 mph E1.9 kmh E 2.3 mph3.7 kmh 30.11 in1019.6 mb - 0.00 in0.0 mm 0.00 in0.0 mm
06:40 AM 47.5°F8.6°C 26.6°F-3.0°C 44% Calm Calm 2.3 mph3.7 kmh 30.11 in1019.6 mb - 0.00 in0.0 mm 0.00 in0.0 mm
06:30 AM 47.7°F8.7°C 25.7°F-3.5°C 42% Calm Calm 1.2 mph1.9 kmh 30.11 in1019.6 mb - 0.00 in0.0 mm 0.00 in0.0 mm
06:20 AM 47.9°F8.8°C 26.5°F-3.1°C 43% 1.2 mph E1.9 kmh E 2.3 mph3.7 kmh 30.11 in1019.6 mb - 0.00 in0.0 mm 0.00 in0.0 mm
06:10 AM 47.7°F8.7°C 26.2°F-3.2°C 43% Calm Calm 3.5 mph5.6 kmh 30.11 in1019.6 mb - 0.00 in0.0 mm 0.00 in0.0 mm
06:00 AM 47.3°F8.5°C 25.9°F-3.4°C 43% 1.2 mph E1.9 kmh E 2.3 mph3.7 kmh 30.11 in1019.6 mb - 0.00 in0.0 mm 0.00 in0.0 mm
05:50 AM 47.0°F8.3°C 27.3°F-2.6°C 46% Calm Calm 1.2 mph1.9 kmh 30.11 in1019.6 mb - 0.00 in0.0 mm 0.00 in0.0 mm
05:40 AM 46.5°F8.1°C 27.3°F-2.6°C 47% 1.2 mph ENE1.9 kmh ENE 3.5 mph5.6 kmh 30.11 in1019.6 mb - 0.00 in0.0 mm 0.00 in0.0 mm
05:30 AM 46.4°F8.0°C 27.2°F-2.7°C 47% 1.2 mph NE1.9 kmh NE 1.2 mph1.9 kmh 30.10 in1019.3 mb - 0.00 in0.0 mm 0.00 in0.0 mm
05:20 AM 46.4°F8.0°C 27.2°F-2.7°C 47% Calm Calm 1.2 mph1.9 kmh 30.10 in1019.3 mb - 0.00 in0.0 mm 0.00 in0.0 mm
05:10 AM 46.6°F8.1°C 27.4°F-2.6°C 47% 1.2 mph NE1.9 kmh NE 2.3 mph3.7 kmh 30.10 in1019.3 mb - 0.00 in0.0 mm 0.00 in0.0 mm
05:00 AM 47.0°F8.3°C 27.8°F-2.3°C 47% 1.2 mph NE1.9 kmh NE 2.3 mph3.7 kmh 30.10 in1019.3 mb - 0.00 in0.0 mm 0.00 in0.0 mm
04:50 AM 47.3°F8.5°C 27.6°F-2.4°C 46% Calm Calm 2.3 mph3.7 kmh 30.10 in1019.3 mb - 0.00 in0.0 mm 0.00 in0.0 mm
04:40 AM 47.6°F8.7°C 27.3°F-2.6°C 45% 1.2 mph NE1.9 kmh NE 2.3 mph3.7 kmh 30.10 in1019.3 mb - 0.00 in0.0 mm 0.00 in0.0 mm
04:30 AM 47.9°F8.8°C 27.0°F-2.8°C 44% Calm Calm 1.2 mph1.9 kmh 30.10 in1019.3 mb - 0.00 in0.0 mm 0.00 in0.0 mm
04:20 AM 48.1°F8.9°C 27.2°F-2.7°C 44% 1.2 mph NE1.9 kmh NE 2.3 mph3.7 kmh 30.10 in1019.3 mb - 0.00 in0.0 mm 0.00 in0.0 mm
04:10 AM 48.4°F9.1°C 26.9°F-2.8°C 43% Calm Calm -- 30.10 in1019.3 mb - 0.00 in0.0 mm 0.00 in0.0 mm
04:00 AM 48.7°F9.3°C 27.2°F-2.7°C 43% Calm Calm 2.3 mph3.7 kmh 30.10 in1019.3 mb - 0.00 in0.0 mm 0.00 in0.0 mm
03:50 AM 49.0°F9.4°C 27.5°F-2.5°C 43% 1.2 mph NE1.9 kmh NE 2.3 mph3.7 kmh 30.10 in1019.3 mb - 0.00 in0.0 mm 0.00 in0.0 mm
03:40 AM 49.4°F9.7°C 26.7°F-2.9°C 41% Calm Calm 1.2 mph1.9 kmh 30.10 in1019.3 mb - 0.00 in0.0 mm 0.00 in0.0 mm
03:30 AM 49.8°F9.9°C 26.4°F-3.1°C 40% Calm Calm 1.2 mph1.9 kmh 30.10 in1019.3 mb - 0.00 in0.0 mm 0.00 in0.0 mm
03:20 AM 50.0°F10.0°C 27.2°F-2.7°C 41% Calm Calm 1.2 mph1.9 kmh 30.09 in1019.0 mb - 0.00 in0.0 mm 0.00 in0.0 mm
03:10 AM 50.5°F10.3°C 27.0°F-2.8°C 40% 1.2 mph NE1.9 kmh NE 2.3 mph3.7 kmh 30.09 in1019.0 mb - 0.00 in0.0 mm 0.00 in0.0 mm
03:00 AM 51.1°F10.6°C 26.3°F-3.2°C 38% Calm Calm 1.2 mph1.9 kmh 30.09 in1019.0 mb - 0.00 in0.0 mm 0.00 in0.0 mm
02:50 AM 51.6°F10.9°C 25.5°F-3.6°C 36% Calm Calm 1.2 mph1.9 kmh 30.09 in1019.0 mb - 0.00 in0.0 mm 0.00 in0.0 mm
02:40 AM 51.9°F11.1°C 25.8°F-3.4°C 36% Calm Calm 1.2 mph1.9 kmh 30.09 in1019.0 mb - 0.00 in0.0 mm 0.00 in0.0 mm
02:30 AM 52.3°F11.3°C 26.8°F-2.9°C 37% Calm Calm 2.3 mph3.7 kmh 30.09 in1019.0 mb - 0.00 in0.0 mm 0.00 in0.0 mm
02:20 AM 52.7°F11.5°C 26.5°F-3.1°C 36% Calm Calm -- 30.09 in1019.0 mb - 0.00 in0.0 mm 0.00 in0.0 mm
02:10 AM 53.2°F11.8°C 26.2°F-3.2°C 35% Calm Calm 1.2 mph1.9 kmh 30.09 in1019.0 mb - 0.00 in0.0 mm 0.00 in0.0 mm
02:00 AM 53.1°F11.7°C 24.7°F-4.1°C 33% Calm Calm 1.2 mph1.9 kmh 30.09 in1019.0 mb - 0.00 in0.0 mm 0.00 in0.0 mm
01:50 AM 52.8°F11.6°C 25.2°F-3.8°C 34% Calm Calm 1.2 mph1.9 kmh 30.09 in1019.0 mb - 0.00 in0.0 mm 0.00 in0.0 mm
01:40 AM 52.9°F11.6°C 25.3°F-3.7°C 34% Calm Calm -- 30.09 in1019.0 mb - 0.00 in0.0 mm 0.00 in0.0 mm
01:30 AM 53.6°F12.0°C 26.6°F-3.0°C 35% Calm Calm 1.2 mph1.9 kmh 30.09 in1019.0 mb - 0.00 in0.0 mm 0.00 in0.0 mm
01:20 AM 54.0°F12.2°C 26.9°F-2.8°C 35% Calm Calm -- 30.09 in1019.0 mb - 0.00 in0.0 mm 0.00 in0.0 mm
01:10 AM 54.3°F12.4°C 27.2°F-2.7°C 35% Calm Calm -- 30.09 in1019.0 mb - 0.00 in0.0 mm 0.00 in0.0 mm
01:00 AM 54.5°F12.5°C 26.7°F-2.9°C 34% Calm Calm -- 30.09 in1019.0 mb - 0.00 in0.0 mm 0.00 in0.0 mm
12:50 AM 54.8°F12.7°C 26.9°F-2.8°C 34% Calm Calm -- 30.09 in1019.0 mb - 0.00 in0.0 mm 0.00 in0.0 mm
12:40 AM 54.9°F12.7°C 26.3°F-3.2°C 33% Calm Calm 1.2 mph1.9 kmh 30.09 in1019.0 mb - 0.00 in0.0 mm 0.00 in0.0 mm
12:30 AM 54.9°F12.7°C 27.0°F-2.8°C 34% Calm Calm 1.2 mph1.9 kmh 30.09 in1019.0 mb - 0.00 in0.0 mm 0.00 in0.0 mm
12:20 AM 54.4°F12.4°C 26.5°F-3.1°C 34% 1.2 mph ENE1.9 kmh ENE 3.5 mph5.6 kmh 30.09 in1019.0 mb - 0.00 in0.0 mm 0.00 in0.0 mm
12:10 AM 53.9°F12.2°C 27.5°F-2.5°C 36% Calm Calm 1.2 mph1.9 kmh 30.09 in1019.0 mb - 0.00 in0.0 mm 0.00 in0.0 mm
12:00 AM 54.0°F12.2°C 27.6°F-2.4°C 36% 1.2 mph E1.9 kmh E 2.3 mph3.7 kmh 30.09 in1019.0 mb - 0.00 in0.0 mm 0.00 in0.0 mm